Time;durP1;ratioP1;P1;durP2;ratioP2;P2;SDS_P1;SDS_P2;PMS_P1;PMS_P2;Temp;Humidity;BMP_temperature;BMP_pressure;BME280_temperature;BME280_humidity;BME280_pressure;Samples;Min_cycle;Max_cycle;Signal;HPM_P1;HPM_P2
2022/06/24 00:00:14;;;;;;;12.50;2.60;;;20.60;99.90;;;;;;4147143;28;20525;-44
2022/06/24 00:02:37;;;;;;;14.85;2.63;;;20.60;99.90;;;;;;4146757;28;20083;-42
2022/06/24 00:05:08;;;;;;;4.80;2.00;;;20.60;99.90;;;;;;4147046;28;20065;-43
2022/06/24 00:07:28;;;;;;;12.30;3.35;;;20.50;99.90;;;;;;4151191;28;20603;-43
2022/06/24 00:09:50;;;;;;;5.72;2.30;;;20.50;99.90;;;;;;4154323;28;20427;-44
2022/06/24 00:12:13;;;;;;;16.00;2.38;;;20.40;99.90;;;;;;4157773;28;20063;-43
2022/06/24 00:14:35;;;;;;;5.32;1.75;;;20.30;99.90;;;;;;4147000;28;20493;-44
2022/06/24 00:17:06;;;;;;;10.65;2.28;;;20.20;99.90;;;;;;4148367;28;20104;-45
2022/06/24 00:19:29;;;;;;;5.35;2.03;;;20.40;99.90;;;;;;4153986;28;20092;-46
2022/06/24 00:22:02;;;;;;;6.72;2.03;;;20.30;99.90;;;;;;4146746;28;20048;-44
2022/06/24 00:24:23;;;;;;;10.10;2.20;;;20.40;99.90;;;;;;4146830;28;20052;-43
2022/06/24 00:26:44;;;;;;;10.23;2.42;;;20.30;99.90;;;;;;4146806;28;20048;-43
2022/06/24 00:29:04;;;;;;;10.93;2.70;;;20.30;99.90;;;;;;4146589;28;20044;-45
2022/06/24 00:31:25;;;;;;;7.25;2.05;;;20.20;99.90;;;;;;4146736;28;20056;-44
2022/06/24 00:33:47;;;;;;;9.50;4.22;;;20.20;99.90;;;;;;4146869;28;20149;-42
2022/06/24 00:36:09;;;;;;;16.52;2.65;;;20.30;99.90;;;;;;4146296;28;20096;-43
2022/06/24 00:38:35;;;;;;;6.22;2.35;;;20.30;99.90;;;;;;4146177;28;20120;-42
2022/06/24 00:41:04;;;;;;;7.63;2.28;;;20.30;99.90;;;;;;4146628;28;20048;-44
2022/06/24 00:43:56;;;;;;;4.30;2.33;;;20.10;99.90;;;;;;4151967;28;20135;-42
2022/06/24 00:46:36;;;;;;;11.43;2.65;;;19.90;99.90;;;;;;4144316;28;20184;-44
2022/06/24 00:48:59;;;;;;;7.32;2.88;;;19.90;99.90;;;;;;4156786;28;20052;-45
2022/06/24 00:51:22;;;;;;;9.65;3.60;;;20.00;99.90;;;;;;4136426;28;20432;-42
2022/06/24 00:53:54;;;;;;;6.22;1.63;;;20.00;99.90;;;;;;4139214;28;20073;-42
2022/06/24 00:56:19;;;;;;;17.20;2.40;;;20.10;99.90;;;;;;4144243;28;20596;-43
2022/06/24 00:58:48;;;;;;;8.07;3.17;;;20.20;99.90;;;;;;4126680;28;20077;-42
2022/06/24 01:01:10;;;;;;;9.88;3.20;;;19.90;99.90;;;;;;4137453;28;20093;-45
2022/06/24 01:03:42;;;;;;;6.38;2.78;;;19.80;99.90;;;;;;4142621;28;20123;-42
2022/06/24 01:06:04;;;;;;;10.40;3.20;;;19.80;99.90;;;;;;4143104;28;20052;-45
2022/06/24 01:08:25;;;;;;;10.02;2.65;;;19.70;99.90;;;;;;4152166;28;20048;-42
2022/06/24 01:10:49;;;;;;;12.10;2.83;;;19.60;99.90;;;;;;4148390;28;20165;-43
2022/06/24 01:13:10;;;;;;;8.98;3.38;;;19.50;99.90;;;;;;4143806;28;20111;-44
2022/06/24 01:15:31;;;;;;;6.63;2.38;;;19.40;99.90;;;;;;4129969;28;20070;-43
2022/06/24 01:17:51;;;;;;;8.68;2.65;;;19.50;99.90;;;;;;4145050;28;20045;-43
2022/06/24 01:20:12;;;;;;;11.93;3.78;;;19.60;99.90;;;;;;4149807;28;20587;-44
2022/06/24 01:22:33;;;;;;;3.53;2.17;;;19.70;99.90;;;;;;4147355;28;20157;-42
2022/06/24 01:24:54;;;;;;;7.82;2.92;;;19.70;99.90;;;;;;4145934;28;20072;-43
2022/06/24 01:27:15;;;;;;;7.35;2.30;;;19.60;99.90;;;;;;4145517;28;20104;-43
2022/06/24 01:29:36;;;;;;;7.93;2.72;;;19.50;99.90;;;;;;4145771;28;20048;-43
2022/06/24 01:31:56;;;;;;;3.00;2.20;;;19.40;99.90;;;;;;4145786;28;20096;-45
2022/06/24 01:34:19;;;;;;;6.78;3.53;;;19.30;99.90;;;;;;4145801;28;20089;-44
2022/06/24 01:36:40;;;;;;;4.55;2.35;;;19.20;99.90;;;;;;4145552;28;20560;-43
2022/06/24 01:39:05;;;;;;;10.05;4.20;;;19.30;99.90;;;;;;4145605;28;20133;-44
2022/06/24 01:41:25;;;;;;;9.52;3.20;;;19.20;99.90;;;;;;4145293;28;20126;-43
2022/06/24 01:43:46;;;;;;;7.25;3.20;;;19.20;99.90;;;;;;4146564;28;20139;-43
2022/06/24 01:46:07;;;;;;;9.68;2.78;;;19.20;99.90;;;;;;4148479;28;20053;-43
2022/06/24 01:48:28;;;;;;;8.25;2.78;;;19.30;99.90;;;;;;4145321;28;20049;-43
2022/06/24 01:50:48;;;;;;;5.68;3.30;;;19.30;99.90;;;;;;4159518;28;20088;-43
2022/06/24 01:53:09;;;;;;;8.68;2.72;;;19.50;99.90;;;;;;4145274;28;20135;-42
2022/06/24 01:55:30;;;;;;;14.05;3.35;;;19.50;99.90;;;;;;4145609;28;20092;-43
2022/06/24 01:57:50;;;;;;;10.13;3.70;;;19.20;99.90;;;;;;4145054;28;20134;-43
2022/06/24 02:00:12;;;;;;;9.07;3.35;;;19.10;99.90;;;;;;4145453;28;20100;-44
2022/06/24 02:02:34;;;;;;;13.77;4.40;;;19.30;99.90;;;;;;4145147;28;20060;-43
2022/06/24 02:04:55;;;;;;;5.28;2.33;;;19.30;99.90;;;;;;4145393;28;20100;-45
2022/06/24 02:07:16;;;;;;;10.15;3.75;;;19.20;99.90;;;;;;4148522;28;20041;-43
2022/06/24 02:13:26;;;;;;;7.55;3.22;;;19.20;99.90;;;;;;4161303;28;20567;-44
2022/06/24 02:14:57;;;;;;;14.45;3.15;;;19.20;99.90;;;;;;4147024;28;20417;-43
2022/06/24 02:17:17;;;;;;;12.05;3.88;;;19.20;99.90;;;;;;4149113;28;20052;-43
2022/06/24 02:19:39;;;;;;;7.40;2.55;;;19.20;99.90;;;;;;4160274;28;20456;-43
2022/06/24 02:22:00;;;;;;;11.55;3.30;;;19.20;99.90;;;;;;4145144;28;20057;-43
2022/06/24 02:24:20;;;;;;;9.27;3.20;;;19.20;99.90;;;;;;4144652;28;20140;-44
2022/06/24 02:26:43;;;;;;;3.60;2.63;;;19.20;99.90;;;;;;4144888;28;20049;-45
2022/06/24 02:29:04;;;;;;;11.77;2.50;;;19.20;99.90;;;;;;4144670;28;20053;-44
2022/06/24 02:31:25;;;;;;;8.60;3.13;;;19.10;99.90;;;;;;4144733;28;20049;-43
2022/06/24 02:33:49;;;;;;;11.95;3.95;;;19.00;99.90;;;;;;4144744;28;20410;-44
2022/06/24 02:36:10;;;;;;;10.48;3.35;;;19.00;99.90;;;;;;4145068;28;20048;-43
2022/06/24 02:38:32;;;;;;;6.80;2.97;;;18.80;99.90;;;;;;4143987;28;20556;-44
2022/06/24 02:40:53;;;;;;;10.50;4.13;;;18.80;99.90;;;;;;4153220;28;20064;-42
2022/06/24 02:43:34;;;;;;;14.43;3.58;;;18.80;99.90;;;;;;4154021;28;20044;-43
2022/06/24 02:46:02;;;;;;;9.63;2.67;;;18.80;99.90;;;;;;4153860;28;20417;-43
2022/06/24 02:48:25;;;;;;;7.85;3.78;;;18.70;99.90;;;;;;4144833;28;20143;-44
2022/06/24 02:50:51;;;;;;;7.63;3.42;;;18.50;99.90;;;;;;4158297;28;20089;-42
2022/06/24 02:53:14;;;;;;;11.88;4.03;;;18.30;99.90;;;;;;4146795;28;20053;-43
2022/06/24 02:55:37;;;;;;;12.57;5.10;;;18.30;99.90;;;;;;4144836;28;20524;-44
2022/06/24 02:57:57;;;;;;;15.60;5.22;;;18.30;99.90;;;;;;4144449;28;20707;-43
2022/06/24 03:00:18;;;;;;;9.25;5.07;;;18.40;99.90;;;;;;4144391;28;20056;-44
2022/06/24 03:02:39;;;;;;;13.23;6.43;;;18.40;99.90;;;;;;4144479;28;20053;-43
2022/06/24 03:05:05;;;;;;;7.40;4.78;;;18.60;99.90;;;;;;4144440;28;20101;-44
2022/06/24 03:07:25;;;;;;;14.65;4.63;;;18.50;99.90;;;;;;4148629;28;20164;-44
2022/06/24 03:09:46;;;;;;;5.50;3.97;;;18.30;99.90;;;;;;4144408;28;20057;-42
2022/06/24 03:12:08;;;;;;;8.90;5.28;;;18.30;99.90;;;;;;4156578;28;20052;-43
2022/06/24 03:14:29;;;;;;;9.68;4.68;;;18.30;99.90;;;;;;4154967;28;20072;-47
2022/06/24 03:16:49;;;;;;;10.85;5.13;;;18.40;99.90;;;;;;4144428;28;20092;-44
2022/06/24 03:19:10;;;;;;;7.03;4.20;;;18.50;99.90;;;;;;4144132;28;20096;-44
2022/06/24 03:21:31;;;;;;;12.02;4.45;;;18.40;99.90;;;;;;4155301;28;20110;-42
2022/06/24 03:23:52;;;;;;;8.63;3.92;;;18.40;99.90;;;;;;4159094;28;20210;-44
2022/06/24 03:26:13;;;;;;;14.38;4.90;;;18.30;99.90;;;;;;4147430;28;20057;-42
2022/06/24 03:28:34;;;;;;;7.00;4.57;;;18.30;99.90;;;;;;4147759;28;20585;-44
2022/06/24 03:30:55;;;;;;;11.43;3.75;;;18.30;99.90;;;;;;4147287;28;20581;-43
2022/06/24 03:33:16;;;;;;;10.45;5.10;;;18.30;99.90;;;;;;4147494;28;20048;-43
2022/06/24 03:35:37;;;;;;;12.55;4.35;;;18.30;99.90;;;;;;4147536;28;20057;-44
2022/06/24 03:37:58;;;;;;;12.65;5.38;;;18.30;99.90;;;;;;4162515;28;20051;-42
2022/06/24 03:40:19;;;;;;;9.38;3.88;;;18.30;99.90;;;;;;4155194;28;20512;-44
2022/06/24 03:42:40;;;;;;;10.20;4.10;;;18.20;99.90;;;;;;4147633;28;20540;-44
2022/06/24 03:45:01;;;;;;;6.65;4.82;;;18.20;99.90;;;;;;4147421;28;20053;-43
2022/06/24 03:47:23;;;;;;;9.93;4.45;;;18.10;99.90;;;;;;4147134;28;20104;-44
2022/06/24 03:49:44;;;;;;;10.43;5.07;;;18.20;99.90;;;;;;4152722;28;20049;-42
2022/06/24 03:52:06;;;;;;;8.45;5.28;;;18.20;99.90;;;;;;4163330;28;20104;-42
2022/06/24 03:54:27;;;;;;;13.95;4.55;;;18.10;99.90;;;;;;4147320;28;20109;-44
2022/06/24 03:56:48;;;;;;;11.57;4.80;;;18.20;99.90;;;;;;4146319;28;20124;-44
2022/06/24 03:59:08;;;;;;;8.75;4.75;;;18.20;99.90;;;;;;4147259;28;20424;-45
2022/06/24 04:01:29;;;;;;;8.77;5.32;;;18.30;99.90;;;;;;4147226;28;20398;-42
2022/06/24 04:03:50;;;;;;;12.98;5.40;;;18.30;99.90;;;;;;4147265;28;20829;-43
2022/06/24 04:06:11;;;;;;;6.13;5.22;;;18.30;99.90;;;;;;4147226;28;20056;-43
2022/06/24 04:08:32;;;;;;;9.35;4.45;;;18.30;99.90;;;;;;4159208;28;20417;-44
2022/06/24 04:11:12;;;;;;;10.30;5.05;;;18.40;99.90;;;;;;4163130;28;20048;-43
2022/06/24 04:13:33;;;;;;;8.80;4.30;;;18.30;99.90;;;;;;4147127;28;20453;-43
2022/06/24 04:15:55;;;;;;;9.25;5.30;;;18.40;99.90;;;;;;4146774;28;20065;-42
2022/06/24 04:18:16;;;;;;;9.70;4.70;;;18.30;99.90;;;;;;4153032;28;20052;-45
2022/06/24 04:20:37;;;;;;;10.50;4.15;;;18.40;99.90;;;;;;4146812;28;20626;-43
2022/06/24 04:23:05;;;;;;;10.57;4.70;;;18.50;99.90;;;;;;4146609;28;20061;-43
2022/06/24 04:25:25;;;;;;;12.52;4.60;;;18.40;99.90;;;;;;4158379;28;20061;-43
2022/06/24 04:27:46;;;;;;;10.57;5.18;;;18.50;99.90;;;;;;4158026;28;20060;-44
2022/06/24 04:30:10;;;;;;;8.48;4.75;;;18.50;99.90;;;;;;4148842;28;20053;-44
2022/06/24 04:32:32;;;;;;;13.82;4.60;;;18.60;99.90;;;;;;4162188;28;20053;-43
2022/06/24 04:34:54;;;;;;;;;;;18.60;99.90;;;;;;4152786;28;20834;-44
2022/06/24 04:37:15;;;;;;;5.80;3.80;;;18.60;99.90;;;;;;4155976;28;20348;-42
2022/06/24 04:39:36;;;;;;;14.85;4.43;;;18.60;99.90;;;;;;4146706;28;20052;-43
2022/06/24 04:41:57;;;;;;;5.65;4.25;;;18.70;99.90;;;;;;4146570;28;20563;-43
2022/06/24 04:44:18;;;;;;;11.88;3.97;;;18.70;99.90;;;;;;4149225;28;20413;-44
2022/06/24 04:46:39;;;;;;;9.45;2.88;;;18.80;99.90;;;;;;4146231;28;20453;-43
2022/06/24 04:49:00;;;;;;;5.93;3.65;;;18.80;99.90;;;;;;4146629;28;20048;-44
2022/06/24 04:51:20;;;;;;;7.22;3.53;;;18.80;99.90;;;;;;4146434;28;20141;-42
2022/06/24 04:53:41;;;;;;;10.80;3.95;;;18.90;99.90;;;;;;4146278;28;20744;-44
2022/06/24 04:56:02;;;;;;;12.07;3.70;;;19.00;99.90;;;;;;4145020;28;20053;-45
2022/06/24 04:58:23;;;;;;;17.83;4.28;;;19.00;99.90;;;;;;4146229;28;20136;-43
2022/06/24 05:00:44;;;;;;;8.13;3.92;;;19.10;99.90;;;;;;4146125;28;20116;-45
2022/06/24 05:03:05;;;;;;;6.63;3.47;;;19.10;99.90;;;;;;4145874;28;20053;-43
2022/06/24 05:05:26;;;;;;;11.50;4.65;;;19.20;99.90;;;;;;4145894;28;20065;-44
2022/06/24 05:07:47;;;;;;;6.88;4.85;;;19.20;99.90;;;;;;4152962;28;20111;-44
2022/06/24 05:10:08;;;;;;;11.00;3.92;;;19.30;99.90;;;;;;4149746;28;20064;-43
2022/06/24 05:12:29;;;;;;;9.30;4.28;;;19.30;99.90;;;;;;4155104;28;20045;-42
2022/06/24 05:14:50;;;;;;;10.15;4.15;;;19.40;99.90;;;;;;4146302;28;20589;-43
2022/06/24 05:17:15;;;;;;;6.28;2.88;;;19.40;99.90;;;;;;4149469;28;20044;-45
2022/06/24 05:19:36;;;;;;;17.55;3.50;;;19.50;99.90;;;;;;4150312;28;20136;-43
2022/06/24 05:21:56;;;;;;;9.80;3.70;;;19.60;99.90;;;;;;4145472;28;20123;-46
2022/06/24 05:24:17;;;;;;;10.10;3.53;;;19.80;99.90;;;;;;4144805;28;20049;-44
2022/06/24 05:26:41;;;;;;;11.55;4.60;;;20.00;99.90;;;;;;4145154;28;20060;-45
2022/06/24 05:29:02;;;;;;;10.27;4.65;;;20.20;99.90;;;;;;4154352;28;20582;-45
2022/06/24 05:31:23;;;;;;;8.52;3.60;;;20.50;99.90;;;;;;4158344;28;20048;-44
2022/06/24 05:33:44;;;;;;;9.50;3.55;;;20.60;99.90;;;;;;4145304;28;20436;-47
2022/06/24 05:36:05;;;;;;;6.47;2.65;;;20.80;99.90;;;;;;4146425;28;20127;-44
2022/06/24 05:38:26;;;;;;;11.52;3.17;;;20.90;99.90;;;;;;4149232;28;20116;-43
2022/06/24 05:40:51;;;;;;;7.55;3.83;;;21.00;99.90;;;;;;4149692;28;20065;-44
2022/06/24 05:43:12;;;;;;;10.43;4.38;;;21.00;99.90;;;;;;4161829;28;20135;-44
2022/06/24 05:45:33;;;;;;;7.00;2.95;;;21.10;99.90;;;;;;4146414;28;20076;-45
2022/06/24 05:47:54;;;;;;;11.80;3.08;;;21.10;99.90;;;;;;4145063;28;20100;-43
2022/06/24 05:50:15;;;;;;;7.72;2.88;;;21.00;99.90;;;;;;4152670;28;20051;-44
2022/06/24 05:55:15;;;;;;;9.88;3.17;;;21.10;99.90;;;;;;4145214;28;20056;-44
2022/06/24 05:57:36;;;;;;;6.53;4.45;;;21.30;99.90;;;;;;4145070;28;20425;-44
2022/06/24 05:59:57;;;;;;;6.25;2.67;;;21.40;99.90;;;;;;4145198;28;20563;-43
2022/06/24 06:02:20;;;;;;;5.45;2.45;;;21.50;99.90;;;;;;4145290;28;20129;-45
2022/06/24 06:04:41;;;;;;;9.00;3.83;;;21.40;99.90;;;;;;4145131;28;20126;-43
2022/06/24 06:07:02;;;;;;;7.15;3.08;;;21.50;99.90;;;;;;4146232;28;20567;-46
2022/06/24 06:09:23;;;;;;;6.70;2.70;;;21.80;99.90;;;;;;4160037;28;20127;-44
2022/06/24 06:11:44;;;;;;;13.98;3.05;;;22.00;99.90;;;;;;4154024;28;20060;-44
2022/06/24 06:14:04;;;;;;;8.63;2.28;;;22.20;99.90;;;;;;4147698;28;20060;-43
2022/06/24 06:16:26;;;;;;;8.20;2.83;;;22.30;99.90;;;;;;4145088;28;20409;-43
2022/06/24 06:18:49;;;;;;;6.82;3.42;;;22.40;99.90;;;;;;4160601;28;20056;-42
2022/06/24 06:21:11;;;;;;;12.13;3.08;;;22.50;99.90;;;;;;4144936;28;20624;-44
2022/06/24 06:23:32;;;;;;;10.47;3.10;;;22.70;99.90;;;;;;4144884;28;20355;-44
2022/06/24 06:25:59;;;;;;;6.78;3.28;;;22.70;99.90;;;;;;4147143;28;20283;-45
2022/06/24 06:28:20;;;;;;;10.43;3.33;;;22.70;99.90;;;;;;4145166;28;20053;-44
2022/06/24 06:30:41;;;;;;;13.82;3.70;;;22.80;99.90;;;;;;4144842;28;20112;-44
2022/06/24 06:33:01;;;;;;;8.68;2.47;;;22.90;99.90;;;;;;4144874;28;20052;-44
2022/06/24 06:35:22;;;;;;;8.93;2.70;;;22.90;99.90;;;;;;4143451;28;20056;-46
2022/06/24 06:37:43;;;;;;;6.50;2.20;;;22.90;99.90;;;;;;4144611;28;20052;-43
2022/06/24 06:40:04;;;;;;;7.22;3.47;;;23.00;99.90;;;;;;4144558;28;20564;-44
2022/06/24 06:42:24;;;;;;;10.48;2.80;;;23.10;99.90;;;;;;4144375;28;20572;-44
2022/06/24 06:44:46;;;;;;;12.70;3.75;;;23.30;99.90;;;;;;4144646;28;20044;-43
2022/06/24 06:47:06;;;;;;;7.45;3.10;;;23.20;99.90;;;;;;4144693;28;20148;-45
2022/06/24 06:49:27;;;;;;;7.97;2.75;;;23.20;99.90;;;;;;4147469;28;20052;-45
2022/06/24 06:51:48;;;;;;;6.70;2.60;;;23.40;99.90;;;;;;4151571;28;20081;-43
2022/06/24 06:54:11;;;;;;;7.30;2.78;;;23.80;99.90;;;;;;4144646;28;20056;-43
2022/06/24 06:56:32;;;;;;;8.43;3.22;;;23.90;99.90;;;;;;4144523;28;20068;-43
2022/06/24 06:58:53;;;;;;;5.32;3.15;;;24.20;99.90;;;;;;4144254;28;20532;-44
2022/06/24 07:01:14;;;;;;;8.13;2.83;;;24.40;99.90;;;;;;4144268;28;20057;-43
2022/06/24 07:03:35;;;;;;;5.43;2.55;;;24.30;99.90;;;;;;4144487;28;20057;-44
2022/06/24 07:05:55;;;;;;;6.93;2.97;;;24.20;99.90;;;;;;4144762;28;20053;-47
2022/06/24 07:08:17;;;;;;;6.05;3.10;;;24.00;99.90;;;;;;4154596;28;20084;-44
2022/06/24 07:10:39;;;;;;;8.43;3.05;;;23.90;99.90;;;;;;4153985;28;20049;-44
2022/06/24 07:13:00;;;;;;;4.28;3.03;;;23.80;99.90;;;;;;4144504;28;20405;-44
2022/06/24 07:15:22;;;;;;;9.30;3.50;;;24.10;99.90;;;;;;4144654;28;20104;-43
2022/06/24 07:17:43;;;;;;;10.57;2.13;;;24.30;99.90;;;;;;4151527;28;20144;-45
2022/06/24 07:20:05;;;;;;;4.57;3.03;;;24.40;99.90;;;;;;4154991;28;20149;-43
2022/06/24 07:22:28;;;;;;;10.77;3.22;;;24.40;99.90;;;;;;4155045;28;20108;-44
2022/06/24 07:24:49;;;;;;;8.00;1.98;;;24.20;99.90;;;;;;4144033;28;20520;-44
2022/06/24 07:27:11;;;;;;;9.35;2.05;;;24.50;99.90;;;;;;4144299;28;20068;-43
2022/06/24 07:29:33;;;;;;;7.45;2.25;;;24.70;99.90;;;;;;4144346;28;20874;-45
2022/06/24 07:31:54;;;;;;;4.30;1.80;;;25.10;99.90;;;;;;4144148;28;20072;-45
2022/06/24 07:34:17;;;;;;;4.60;1.60;;;25.00;99.90;;;;;;4144587;28;20105;-42
2022/06/24 07:36:38;;;;;;;8.25;1.52;;;25.40;99.90;;;;;;4144302;28;20061;-45
2022/06/24 07:38:59;;;;;;;7.85;2.00;;;25.70;99.90;;;;;;4144098;28;20052;-45
2022/06/24 07:41:20;;;;;;;6.28;1.35;;;25.50;99.90;;;;;;4144270;28;20060;-43
2022/06/24 07:43:41;;;;;;;7.80;1.73;;;25.70;99.90;;;;;;4151770;28;20124;-44
2022/06/24 07:46:03;;;;;;;6.32;2.15;;;25.80;99.90;;;;;;4150841;28;20068;-44
2022/06/24 07:48:23;;;;;;;8.55;1.20;;;25.40;99.90;;;;;;4143647;28;20052;-43
2022/06/24 07:50:44;;;;;;;5.55;1.10;;;25.40;99.90;;;;;;4157729;28;20060;-43
2022/06/24 07:53:05;;;;;;;8.35;2.42;;;25.80;99.90;;;;;;4145693;28;20053;-44
2022/06/24 07:58:06;;;;;;;10.60;1.77;;;26.20;99.90;;;;;;4144014;28;20106;-45
2022/06/24 08:00:27;;;;;;;5.97;1.45;;;26.30;99.90;;;;;;4144237;28;20061;-44
2022/06/24 08:02:47;;;;;;;5.85;1.13;;;26.00;99.90;;;;;;4144158;28;20061;-45
2022/06/24 08:05:08;;;;;;;3.45;0.80;;;26.40;99.90;;;;;;4143867;28;20520;-44
2022/06/24 08:07:29;;;;;;;13.27;1.45;;;26.60;99.90;;;;;;4146682;28;20044;-43
2022/06/24 08:09:50;;;;;;;8.65;0.90;;;26.60;99.90;;;;;;4145150;28;20113;-44
2022/06/24 08:12:11;;;;;;;7.40;1.20;;;26.40;99.90;;;;;;4159460;28;20470;-45
2022/06/24 08:14:32;;;;;;;4.60;1.75;;;26.40;99.90;;;;;;4155691;28;20354;-44
2022/06/24 08:16:53;;;;;;;5.30;1.15;;;26.10;99.90;;;;;;4146964;28;20184;-45
2022/06/24 08:19:14;;;;;;;8.13;1.30;;;26.00;99.90;;;;;;4161463;28;20064;-44
2022/06/24 08:21:36;;;;;;;3.37;1.20;;;26.10;99.90;;;;;;4150174;28;20145;-44
2022/06/24 08:23:57;;;;;;;4.85;1.35;;;26.00;99.90;;;;;;4146377;28;20342;-43
2022/06/24 08:26:18;;;;;;;5.85;1.00;;;26.30;99.90;;;;;;4146667;28;20703;-45
2022/06/24 08:28:39;;;;;;;6.50;1.00;;;26.30;99.90;;;;;;4146384;28;20069;-43
2022/06/24 08:31:01;;;;;;;8.55;1.40;;;26.40;99.90;;;;;;4147185;28;20060;-44
2022/06/24 08:33:25;;;;;;;8.35;0.90;;;26.60;99.90;;;;;;4148276;28;20096;-45
2022/06/24 08:35:46;;;;;;;6.30;1.10;;;27.10;99.90;;;;;;4148577;28;20794;-44
2022/06/24 08:38:07;;;;;;;5.15;1.15;;;26.90;99.90;;;;;;4147173;28;20120;-44
2022/06/24 08:40:29;;;;;;;8.52;1.30;;;27.10;99.90;;;;;;4146027;28;20081;-44
2022/06/24 08:42:55;;;;;;;17.77;3.65;;;27.40;99.90;;;;;;4146671;28;20579;-44
2022/06/24 08:45:16;;;;;;;6.53;0.80;;;26.80;99.90;;;;;;4162744;28;20052;-45
2022/06/24 08:47:39;;;;;;;5.03;0.80;;;26.80;99.90;;;;;;4145947;28;20575;-45
2022/06/24 08:49:59;;;;;;;;;;;27.20;99.90;;;;;;4153810;28;20053;-45
2022/06/24 08:52:21;;;;;;;10.77;0.80;;;27.60;99.90;;;;;;4158789;28;19937;-44
2022/06/24 08:54:44;;;;;;;6.45;0.82;;;27.70;99.90;;;;;;4146450;28;20112;-44
2022/06/24 08:57:05;;;;;;;6.38;0.70;;;28.00;99.90;;;;;;4146018;28;20524;-46
2022/06/24 08:59:28;;;;;;;8.10;1.10;;;28.00;99.90;;;;;;4145863;28;20057;-44
2022/06/24 09:01:49;;;;;;;7.00;0.80;;;28.10;99.80;;;;;;4145912;28;20137;-46
2022/06/24 09:04:10;;;;;;;5.57;0.70;;;27.90;99.90;;;;;;4146272;28;20069;-46
2022/06/24 09:06:38;;;;;;;4.22;0.65;;;28.00;98.50;;;;;;4146014;28;20096;-44
2022/06/24 09:08:58;;;;;;;9.68;0.93;;;27.70;99.30;;;;;;4145648;28;20122;-44
2022/06/24 09:11:19;;;;;;;9.88;0.70;;;28.00;99.90;;;;;;4149039;28;20413;-45
2022/06/24 09:13:55;;;;;;;3.45;0.90;;;28.50;98.50;;;;;;4146398;28;20143;-45
2022/06/24 09:16:18;;;;;;;6.00;0.90;;;28.10;97.70;;;;;;4145730;28;20136;-45
2022/06/24 09:18:49;;;;;;;12.20;0.70;;;28.10;98.00;;;;;;4150542;28;20100;-43
2022/06/24 09:21:24;;;;;;;7.75;0.60;;;28.10;98.90;;;;;;4145188;28;20100;-44
2022/06/24 09:24:11;;;;;;;5.28;1.00;;;28.20;99.30;;;;;;4146011;28;20096;-43
2022/06/24 09:26:36;;;;;;;4.60;1.13;;;29.00;97.50;;;;;;4162171;28;20178;-45
2022/06/24 09:28:57;;;;;;;4.25;0.60;;;29.10;97.10;;;;;;4146167;28;20057;-43
2022/06/24 09:31:24;;;;;;;5.05;0.70;;;29.30;98.90;;;;;;4145557;28;20088;-43
2022/06/24 09:33:45;;;;;;;8.85;0.60;;;29.30;97.40;;;;;;4145462;28;20049;-44
2022/06/24 09:36:12;;;;;;;3.53;0.80;;;29.30;96.40;;;;;;4145696;28;20064;-47
2022/06/24 09:38:51;;;;;;;8.50;1.08;;;29.50;95.30;;;;;;4145355;28;20049;-45
2022/06/24 09:41:12;;;;;;;4.57;0.73;;;29.40;95.70;;;;;;4145492;28;20138;-44
2022/06/24 09:43:33;;;;;;;8.32;0.60;;;29.70;95.40;;;;;;4147019;28;20125;-44
2022/06/24 09:45:54;;;;;;;3.40;0.60;;;29.70;94.80;;;;;;4145578;28;20060;-46
2022/06/24 09:48:37;;;;;;;5.60;0.60;;;29.40;94.90;;;;;;4149760;28;20672;-45
2022/06/24 09:51:07;;;;;;;4.07;0.70;;;29.00;93.70;;;;;;4147413;28;20052;-45
2022/06/24 09:53:32;;;;;;;5.28;0.70;;;28.40;93.30;;;;;;4147323;28;20056;-43
2022/06/24 09:55:54;;;;;;;7.43;0.95;;;28.00;94.70;;;;;;4156694;28;20064;-46
2022/06/24 09:58:15;;;;;;;13.50;0.73;;;28.00;95.30;;;;;;4147141;28;20060;-45
2022/06/24 10:00:41;;;;;;;6.32;0.93;;;28.30;95.40;;;;;;4147899;28;20053;-44
2022/06/24 10:03:04;;;;;;;3.33;0.60;;;28.70;96.20;;;;;;4145107;28;20121;-44
2022/06/24 10:05:31;;;;;;;5.90;0.57;;;29.10;95.70;;;;;;4147589;28;20060;-44
2022/06/24 10:07:55;;;;;;;5.93;0.60;;;28.90;95.40;;;;;;4152415;28;20064;-44
2022/06/24 10:10:17;;;;;;;3.63;0.60;;;28.90;95.80;;;;;;4151658;28;20080;-44
2022/06/24 10:12:46;;;;;;;5.45;0.60;;;28.70;95.50;;;;;;4146739;28;20099;-47
2022/06/24 10:15:09;;;;;;;8.57;0.80;;;28.40;95.20;;;;;;4148768;28;20069;-44
2022/06/24 10:17:30;;;;;;;;;;;28.40;95.30;;;;;;4158236;28;20448;-44
2022/06/24 10:19:55;;;;;;;10.57;1.10;;;28.50;96.00;;;;;;4148880;28;20002;-44
2022/06/24 10:22:35;;;;;;;5.50;0.95;;;29.30;97.10;;;;;;4145710;28;20048;-44
2022/06/24 10:24:56;;;;;;;6.10;0.68;;;29.70;96.00;;;;;;4145135;28;20140;-43
2022/06/24 10:27:17;;;;;;;5.45;0.60;;;29.90;95.50;;;;;;4155129;28;20048;-43
2022/06/24 10:29:38;;;;;;;6.15;0.55;;;29.30;96.20;;;;;;4149980;28;20099;-43
2022/06/24 10:32:04;;;;;;;6.13;0.70;;;29.30;95.10;;;;;;4148397;28;20044;-44
2022/06/24 10:34:32;;;;;;;2.10;0.80;;;29.60;96.00;;;;;;4149393;28;20141;-44
2022/06/24 10:36:58;;;;;;;4.03;0.60;;;29.40;94.80;;;;;;4146637;28;20052;-45
2022/06/24 10:39:23;;;;;;;6.28;0.60;;;29.60;95.10;;;;;;4155815;28;20060;-45
2022/06/24 10:41:45;;;;;;;3.22;0.60;;;29.80;96.20;;;;;;4146153;28;20133;-44
2022/06/24 10:44:25;;;;;;;6.32;0.95;;;30.20;94.80;;;;;;4151290;28;20084;-45
2022/06/24 10:46:46;;;;;;;5.20;0.80;;;29.70;94.40;;;;;;4143186;28;20056;-45
2022/06/24 10:49:07;;;;;;;15.23;1.63;;;29.40;93.30;;;;;;4160736;28;20064;-45
2022/06/24 10:51:32;;;;;;;3.03;0.70;;;29.70;95.40;;;;;;4154682;28;20103;-44
2022/06/24 10:54:02;;;;;;;7.43;1.30;;;29.30;94.00;;;;;;4148391;28;20080;-43
2022/06/24 10:56:48;;;;;;;8.02;0.60;;;29.40;94.80;;;;;;4148864;28;20052;-45
2022/06/24 10:59:09;;;;;;;6.32;0.80;;;30.20;96.50;;;;;;4147264;28;20053;-44
2022/06/24 11:01:31;;;;;;;4.50;0.40;;;31.10;95.40;;;;;;4152361;28;20087;-44
2022/06/24 11:03:53;;;;;;;6.88;1.17;;;30.60;93.60;;;;;;4148162;28;20572;-44
2022/06/24 11:06:13;;;;;;;6.40;1.13;;;30.90;94.10;;;;;;4146916;28;20044;-46
2022/06/24 11:08:38;;;;;;;1.42;0.60;;;31.20;92.30;;;;;;4158756;28;20072;-45
2022/06/24 11:10:58;;;;;;;4.57;0.60;;;30.70;91.40;;;;;;4152006;28;20052;-44
2022/06/24 11:13:22;;;;;;;5.20;0.98;;;29.80;92.70;;;;;;4143943;28;20076;-47
2022/06/24 11:15:50;;;;;;;3.13;0.70;;;30.10;92.70;;;;;;4144389;28;20627;-45
2022/06/24 11:18:14;;;;;;;2.28;0.55;;;30.40;91.50;;;;;;4155337;28;20060;-44
2022/06/24 11:20:40;;;;;;;7.05;0.80;;;30.30;92.00;;;;;;4144793;28;20866;-43
2022/06/24 11:23:09;;;;;;;3.85;0.50;;;30.20;91.90;;;;;;4146644;28;20478;-45
2022/06/24 11:25:30;;;;;;;3.75;0.50;;;30.60;91.00;;;;;;4152637;28;20047;-45
2022/06/24 11:27:51;;;;;;;5.35;0.60;;;30.90;91.60;;;;;;4153879;28;20409;-45
2022/06/24 11:30:12;;;;;;;3.00;0.52;;;30.90;92.50;;;;;;4160372;28;20068;-45
2022/06/24 11:32:59;;;;;;;3.67;0.50;;;30.80;89.60;;;;;;4150377;28;20126;-46
2022/06/24 11:35:22;;;;;;;2.67;0.40;;;30.60;91.10;;;;;;4144075;28;20100;-44
2022/06/24 11:37:43;;;;;;;4.72;0.50;;;30.70;91.00;;;;;;4148194;28;20084;-46
2022/06/24 11:40:05;;;;;;;3.78;0.70;;;31.10;90.70;;;;;;4155877;28;20124;-43
2022/06/24 11:42:26;;;;;;;6.60;0.70;;;31.20;90.00;;;;;;4148032;28;20514;-42
2022/06/24 11:44:50;;;;;;;3.60;0.50;;;31.10;91.10;;;;;;4146915;28;20147;-44
2022/06/24 11:47:12;;;;;;;3.85;0.50;;;30.70;88.60;;;;;;4147084;28;20048;-43
2022/06/24 11:49:39;;;;;;;2.70;0.50;;;30.90;88.60;;;;;;4150037;28;20052;-43
2022/06/24 11:52:02;;;;;;;5.45;1.20;;;31.60;88.60;;;;;;4146909;28;20072;-44
2022/06/24 11:54:28;;;;;;;9.18;0.60;;;31.40;88.90;;;;;;4157109;28;20062;-43
2022/06/24 11:56:49;;;;;;;2.22;0.60;;;31.00;89.00;;;;;;4147152;28;20061;-42
2022/06/24 11:59:13;;;;;;;9.57;1.05;;;31.60;87.50;;;;;;4146976;28;20129;-42
2022/06/24 12:01:40;;;;;;;6.30;1.15;;;31.20;89.30;;;;;;4147225;28;20096;-43
2022/06/24 12:04:05;;;;;;;4.88;0.50;;;31.30;91.30;;;;;;4153238;28;20197;-43
2022/06/24 12:06:27;;;;;;;2.80;0.50;;;31.60;89.20;;;;;;4147317;28;20048;-43
2022/06/24 12:08:49;;;;;;;2.22;0.60;;;31.80;90.50;;;;;;4162488;28;20047;-43
2022/06/24 12:11:18;;;;;;;4.32;0.47;;;31.30;90.00;;;;;;4154860;28;20044;-45
2022/06/24 12:13:39;;;;;;;2.00;0.70;;;30.50;88.90;;;;;;4156750;28;20123;-43
2022/06/24 12:16:00;;;;;;;4.40;0.50;;;30.10;90.00;;;;;;4146919;28;20052;-43
2022/06/24 12:18:23;;;;;;;4.32;0.50;;;30.70;91.00;;;;;;4159283;28;20053;-44
2022/06/24 12:21:04;;;;;;;7.00;0.82;;;30.90;90.20;;;;;;4150939;28;20112;-42
2022/06/24 12:23:31;;;;;;;5.43;0.63;;;30.90;91.30;;;;;;4146740;28;20115;-44
2022/06/24 12:25:52;;;;;;;4.10;0.93;;;31.20;90.40;;;;;;4146160;28;20115;-43
2022/06/24 12:28:18;;;;;;;4.13;0.50;;;31.00;91.80;;;;;;4146695;28;20120;-43
2022/06/24 12:30:39;;;;;;;4.28;0.50;;;31.80;91.80;;;;;;4146335;28;20045;-43